createdAt,value
2018-07-14T00:00:19.021Z,1007.42
2018-07-14T00:01:19.044Z,1007.42
2018-07-14T00:02:19.070Z,1007.41
2018-07-14T00:03:19.095Z,1007.44
2018-07-14T00:04:19.119Z,1007.45
2018-07-14T00:05:19.144Z,1007.44
2018-07-14T00:06:19.169Z,1007.46
2018-07-14T00:07:19.195Z,1007.49
2018-07-14T00:08:19.218Z,1007.57
2018-07-14T00:09:19.244Z,1007.53
2018-07-14T00:10:19.268Z,1007.54
2018-07-14T00:11:19.292Z,1007.59
2018-07-14T00:12:19.318Z,1007.57
2018-07-14T00:13:19.341Z,1007.57
2018-07-14T00:14:19.368Z,1007.59
2018-07-14T00:15:19.392Z,1007.56
2018-07-14T00:16:19.416Z,1007.61
2018-07-14T00:17:19.454Z,1007.58
2018-07-14T00:18:19.466Z,1007.54
2018-07-14T00:19:19.491Z,1007.55
2018-07-14T00:20:19.515Z,1007.58
2018-07-14T00:21:19.540Z,1007.61
2018-07-14T00:22:19.566Z,1007.56
2018-07-14T00:23:19.590Z,1007.57
2018-07-14T00:24:19.615Z,1007.55
2018-07-14T00:25:19.639Z,1007.59
2018-07-14T00:26:19.660Z,1007.59
2018-07-14T00:27:19.686Z,1007.6
2018-07-14T00:28:19.710Z,1007.62
2018-07-14T00:29:19.736Z,1007.59
2018-07-14T00:30:19.760Z,1007.61
2018-07-14T00:31:19.791Z,1007.64
2018-07-14T00:32:19.809Z,1007.65
2018-07-14T00:33:19.832Z,1007.63
2018-07-14T00:34:19.857Z,1007.64
2018-07-14T00:35:19.882Z,1007.65
2018-07-14T00:36:19.908Z,1007.64
2018-07-14T00:37:19.931Z,1007.64
2018-07-14T00:38:19.956Z,1007.67
2018-07-14T00:39:19.979Z,1007.67
2018-07-14T00:40:20.006Z,1007.68
2018-07-14T00:41:20.047Z,1007.64
2018-07-14T00:42:20.052Z,1007.64
2018-07-14T00:43:20.078Z,1007.61
2018-07-14T00:44:20.152Z,1007.63
2018-07-14T00:45:20.125Z,1007.64
2018-07-14T00:46:20.153Z,1007.62
2018-07-14T00:47:20.173Z,1007.65
2018-07-14T00:48:20.198Z,1007.62
2018-07-14T00:49:20.222Z,1007.58
2018-07-14T00:50:20.246Z,1007.62
2018-07-14T00:51:20.271Z,1007.62
2018-07-14T00:52:20.295Z,1007.63
2018-07-14T00:53:20.320Z,1007.63
2018-07-14T00:54:20.345Z,1007.62
2018-07-14T00:55:20.369Z,1007.63
2018-07-14T00:56:20.390Z,1007.65
2018-07-14T00:57:20.422Z,1007.65
2018-07-14T00:58:20.442Z,1007.64
2018-07-14T00:59:20.463Z,1007.64
2018-07-14T01:00:20.489Z,1007.63
2018-07-14T01:01:20.512Z,1007.64
2018-07-14T01:02:20.536Z,1007.66
2018-07-14T01:03:20.563Z,1007.69
2018-07-14T01:04:20.589Z,1007.69
2018-07-14T01:05:20.609Z,1007.67
2018-07-14T01:06:20.633Z,1007.64
2018-07-14T01:07:20.664Z,1007.66
2018-07-14T01:08:20.680Z,1007.7
2018-07-14T01:09:20.704Z,1007.66
2018-07-14T01:10:20.727Z,1007.67
2018-07-14T01:11:20.756Z,1007.66
2018-07-14T01:12:20.776Z,1007.63
2018-07-14T01:13:20.800Z,1007.62
2018-07-14T01:14:20.823Z,1007.57
2018-07-14T01:15:20.848Z,1007.58
2018-07-14T01:16:20.871Z,1007.6
2018-07-14T01:17:20.895Z,1007.59
2018-07-14T01:18:20.929Z,1007.59
2018-07-14T01:19:20.942Z,1007.61
2018-07-14T01:20:20.967Z,1007.58
2018-07-14T01:21:20.990Z,1007.59
2018-07-14T01:22:21.014Z,1007.55
2018-07-14T01:23:21.038Z,1007.56
2018-07-14T01:24:21.061Z,1007.59
2018-07-14T01:25:21.085Z,1007.53
2018-07-14T01:26:21.109Z,1007.55
2018-07-14T01:27:21.138Z,1007.59
2018-07-14T01:28:21.155Z,1007.59
2018-07-14T01:29:21.180Z,1007.56
2018-07-14T01:30:21.204Z,1007.59
2018-07-14T01:31:21.228Z,1007.61
2018-07-14T01:32:21.252Z,1007.6
2018-07-14T01:33:21.275Z,1007.58
2018-07-14T01:34:21.301Z,1007.62
2018-07-14T01:35:21.322Z,1007.61
2018-07-14T01:36:21.348Z,1007.57
2018-07-14T01:37:21.371Z,1007.58
2018-07-14T01:38:21.393Z,1007.6
2018-07-14T01:39:21.419Z,1007.62
2018-07-14T01:40:21.442Z,1007.62
2018-07-14T01:41:21.465Z,1007.6
2018-07-14T01:42:21.488Z,1007.59
2018-07-14T01:43:21.511Z,1007.61
2018-07-14T01:44:21.535Z,1007.61
2018-07-14T01:45:21.558Z,1007.55
2018-07-14T01:46:21.581Z,1007.55
2018-07-14T01:47:21.605Z,1007.57
2018-07-14T01:48:21.629Z,1007.58
2018-07-14T01:49:21.652Z,1007.56
2018-07-14T01:50:21.674Z,1007.58
2018-07-14T01:51:21.699Z,1007.58
2018-07-14T01:52:21.722Z,1007.56
2018-07-14T01:53:21.745Z,1007.57
2018-07-14T01:54:21.782Z,1007.54
2018-07-14T01:55:21.792Z,1007.52
2018-07-14T01:56:21.818Z,1007.55
2018-07-14T01:57:21.840Z,1007.53
2018-07-14T01:58:21.862Z,1007.53
2018-07-14T01:59:21.887Z,1007.54
2018-07-14T02:00:21.911Z,1007.54
2018-07-14T02:01:21.933Z,1007.56
2018-07-14T02:02:21.957Z,1007.58
2018-07-14T02:03:21.979Z,1007.58
2018-07-14T02:04:22.002Z,1007.61
2018-07-14T02:05:22.026Z,1007.59
2018-07-14T02:06:22.051Z,1007.58
2018-07-14T02:07:22.077Z,1007.6
2018-07-14T02:08:22.095Z,1007.61
2018-07-14T02:09:22.121Z,1007.58
2018-07-14T02:10:22.148Z,1007.6
2018-07-14T02:11:22.165Z,1007.59
2018-07-14T02:12:22.188Z,1007.61
2018-07-14T02:13:22.211Z,1007.61
2018-07-14T02:14:22.234Z,1007.61
2018-07-14T02:15:22.259Z,1007.63
2018-07-14T02:16:22.283Z,1007.67
2018-07-14T02:17:22.304Z,1007.66
2018-07-14T02:18:22.328Z,1007.63
2018-07-14T02:19:22.351Z,1007.7
2018-07-14T02:20:22.374Z,1007.7
2018-07-14T02:21:22.398Z,1007.7
2018-07-14T02:22:22.420Z,1007.72
2018-07-14T02:23:22.442Z,1007.7
2018-07-14T02:24:22.492Z,1007.75
2018-07-14T02:25:22.497Z,1007.79
2018-07-14T02:26:22.512Z,1007.75
2018-07-14T02:27:22.536Z,1007.76
2018-07-14T02:28:22.558Z,1007.74
2018-07-14T02:29:22.582Z,1007.71
2018-07-14T02:30:22.605Z,1007.7
2018-07-14T02:31:22.628Z,1007.74
2018-07-14T02:32:22.651Z,1007.71
2018-07-14T02:33:22.678Z,1007.73
2018-07-14T02:34:22.696Z,1007.7
2018-07-14T02:35:22.728Z,1007.7
2018-07-14T02:36:22.749Z,1007.72
2018-07-14T02:37:22.766Z,1007.7
2018-07-14T02:38:22.788Z,1007.69
2018-07-14T02:39:22.814Z,1007.7
2018-07-14T02:40:22.835Z,1007.73
2018-07-14T02:41:22.859Z,1007.68
2018-07-14T02:42:22.880Z,1007.68
2018-07-14T02:43:22.903Z,1007.7
2018-07-14T02:44:22.927Z,1007.71
2018-07-14T02:45:22.951Z,1007.71
2018-07-14T02:46:22.972Z,1007.74
2018-07-14T02:47:22.995Z,1007.71
2018-07-14T02:48:23.021Z,1007.74
2018-07-14T02:49:23.041Z,1007.72
2018-07-14T02:50:23.064Z,1007.75
2018-07-14T02:51:23.089Z,1007.71
2018-07-14T02:52:23.110Z,1007.72
2018-07-14T02:53:23.131Z,1007.73
2018-07-14T02:54:23.156Z,1007.76
2018-07-14T02:55:23.179Z,1007.73
2018-07-14T02:56:23.201Z,1007.72
2018-07-14T02:57:23.223Z,1007.71
2018-07-14T02:58:23.249Z,1007.72
2018-07-14T02:59:23.274Z,1007.71
2018-07-14T03:00:23.293Z,1007.71
2018-07-14T03:01:23.315Z,1007.75
2018-07-14T03:02:23.340Z,1007.72
2018-07-14T03:03:23.365Z,1007.75
2018-07-14T03:04:23.383Z,1007.8
2018-07-14T03:05:23.411Z,1007.83
2018-07-14T03:06:23.429Z,1007.83
2018-07-14T03:07:23.452Z,1007.83
2018-07-14T03:08:23.474Z,1007.86
2018-07-14T03:09:23.498Z,1007.89
2018-07-14T03:10:23.520Z,1007.85
2018-07-14T03:11:23.542Z,1007.83
2018-07-14T03:12:23.567Z,1007.86
2018-07-14T03:13:23.589Z,1007.85
2018-07-14T03:14:23.612Z,1007.86
2018-07-14T03:15:23.633Z,1007.83
2018-07-14T03:16:23.657Z,1007.82
2018-07-14T03:17:23.681Z,1007.84
2018-07-14T03:18:23.714Z,1007.88
2018-07-14T03:19:23.750Z,1007.88
2018-07-14T03:20:23.747Z,1007.89
2018-07-14T03:21:23.776Z,1007.89
2018-07-14T03:22:23.792Z,1007.88
2018-07-14T03:23:23.815Z,1007.89
2018-07-14T03:24:23.840Z,1007.92
2018-07-14T03:25:23.859Z,1007.94
2018-07-14T03:26:23.883Z,1007.95
2018-07-14T03:27:23.905Z,1008
2018-07-14T03:28:23.928Z,1007.99
2018-07-14T03:29:23.950Z,1007.97
2018-07-14T03:30:23.974Z,1008
2018-07-14T03:31:23.998Z,1008
2018-07-14T03:32:24.017Z,1008.02
2018-07-14T03:33:24.041Z,1008.03
2018-07-14T03:34:24.063Z,1008.04
2018-07-14T03:35:24.086Z,1007.99
2018-07-14T03:36:24.109Z,1008.01
2018-07-14T03:37:24.130Z,1007.99
2018-07-14T03:38:24.157Z,1007.99
2018-07-14T03:39:24.176Z,1008
2018-07-14T03:40:24.196Z,1008.02
2018-07-14T03:41:24.220Z,1007.98
2018-07-14T03:42:24.242Z,1008.03
2018-07-14T03:43:24.265Z,1007.98
2018-07-14T03:44:24.287Z,1007.99
2018-07-14T03:45:24.316Z,1008.01
2018-07-14T03:46:24.335Z,1008
2018-07-14T03:47:24.354Z,1008.03
2018-07-14T03:48:24.377Z,1008.03
2018-07-14T03:49:24.399Z,1008.04
2018-07-14T03:50:24.421Z,1008.08
2018-07-14T03:51:24.443Z,1008.06
2018-07-14T03:52:24.467Z,1008.06
2018-07-14T03:53:24.489Z,1008.07
2018-07-14T03:54:24.510Z,1008.08
2018-07-14T03:55:24.534Z,1008.07
2018-07-14T03:56:24.556Z,1008.07
2018-07-14T03:57:24.578Z,1008.07
2018-07-14T03:58:24.600Z,1008.08
2018-07-14T03:59:24.623Z,1008.09
2018-07-14T04:00:24.648Z,1008.06
2018-07-14T04:01:24.668Z,1008.1
2018-07-14T04:02:24.690Z,1008.1
2018-07-14T04:03:24.715Z,1008.08
2018-07-14T04:04:24.736Z,1008.08
2018-07-14T04:05:24.760Z,1008.09
2018-07-14T04:06:24.796Z,1008.1
2018-07-14T04:07:24.803Z,1008.1
2018-07-14T04:08:24.824Z,1008.09
2018-07-14T04:09:24.845Z,1008.05
2018-07-14T04:10:24.872Z,1008.06
2018-07-14T04:11:24.890Z,1008.06
2018-07-14T04:12:24.914Z,1008.09
2018-07-14T04:13:24.940Z,1008.09
2018-07-14T04:14:24.957Z,1008.07
2018-07-14T04:15:24.981Z,1008.08
2018-07-14T04:16:25.002Z,1008.08
2018-07-14T04:17:25.029Z,1008.1
2018-07-14T04:18:25.048Z,1008.13
2018-07-14T04:19:25.081Z,1008.11
2018-07-14T04:20:25.094Z,1008.07
2018-07-14T04:21:25.115Z,1008.08
2018-07-14T04:22:25.145Z,1008.09
2018-07-14T04:23:25.166Z,1008.07
2018-07-14T04:24:25.180Z,1008.13
2018-07-14T04:25:25.217Z,1008.08
2018-07-14T04:26:25.229Z,1008.09
2018-07-14T04:27:25.246Z,1008.1
2018-07-14T04:28:25.269Z,1008.09
2018-07-14T04:29:25.292Z,1008.1
2018-07-14T04:30:25.313Z,1008.09
2018-07-14T04:31:25.336Z,1008.12
2018-07-14T04:32:25.362Z,1008.15
2018-07-14T04:33:25.381Z,1008.18
2018-07-14T04:34:25.403Z,1008.18
2018-07-14T04:35:25.428Z,1008.17
2018-07-14T04:36:25.448Z,1008.17
2018-07-14T04:37:25.470Z,1008.18
2018-07-14T04:38:25.492Z,1008.23
2018-07-14T04:39:25.516Z,1008.23
2018-07-14T04:40:25.537Z,1008.2
2018-07-14T04:41:25.561Z,1008.27
2018-07-14T04:42:25.604Z,1008.24
2018-07-14T04:43:25.699Z,1008.24
2018-07-14T04:44:25.625Z,1008.23
2018-07-14T04:45:25.647Z,1008.23
2018-07-14T04:46:25.670Z,1008.24
2018-07-14T04:47:25.694Z,1008.23
2018-07-14T04:48:25.714Z,1008.23
2018-07-14T04:49:25.805Z,1008.18
2018-07-14T04:50:25.759Z,1008.2
2018-07-14T04:51:25.781Z,1008.2
2018-07-14T04:52:25.803Z,1008.2
2018-07-14T04:53:25.825Z,1008.19
2018-07-14T04:54:25.846Z,1008.17
2018-07-14T04:55:25.868Z,1008.17
2018-07-14T04:56:25.890Z,1008.19
2018-07-14T04:57:25.912Z,1008.15
2018-07-14T04:58:25.935Z,1008.2
2018-07-14T04:59:25.957Z,1008.22
2018-07-14T05:00:25.979Z,1008.21
2018-07-14T05:01:26.001Z,1008.21
2018-07-14T05:02:26.023Z,1008.22
2018-07-14T05:03:26.046Z,1008.18
2018-07-14T05:04:26.067Z,1008.17
2018-07-14T05:05:26.090Z,1008.19
2018-07-14T05:06:26.182Z,1008.2
2018-07-14T05:07:26.135Z,1008.17
2018-07-14T05:08:26.156Z,1008.14
2018-07-14T05:09:26.182Z,1008.18
2018-07-14T05:10:26.201Z,1008.15
2018-07-14T05:11:26.222Z,1008.14
2018-07-14T05:12:26.243Z,1008.16
2018-07-14T05:13:26.269Z,1008.17
2018-07-14T05:14:26.290Z,1008.15
2018-07-14T05:15:26.312Z,1008.14
2018-07-14T05:16:26.333Z,1008.16
2018-07-14T05:17:26.354Z,1008.19
2018-07-14T05:18:26.375Z,1008.22
2018-07-14T05:19:26.398Z,1008.22
2018-07-14T05:20:26.420Z,1008.23
2018-07-14T05:21:26.531Z,1008.2
2018-07-14T05:22:26.464Z,1008.24
2018-07-14T05:23:26.485Z,1008.26
2018-07-14T05:24:26.508Z,1008.27
2018-07-14T05:25:26.534Z,1008.24
2018-07-14T05:26:26.553Z,1008.24
2018-07-14T05:27:26.574Z,1008.24
2018-07-14T05:28:26.607Z,1008.23
2018-07-14T05:29:26.620Z,1008.24
2018-07-14T05:30:26.643Z,1008.21
2018-07-14T05:31:26.662Z,1008.22
2018-07-14T05:32:26.684Z,1008.25
2018-07-14T05:33:26.705Z,1008.26
2018-07-14T05:34:26.728Z,1008.25
2018-07-14T05:35:26.752Z,1008.27
2018-07-14T05:36:26.774Z,1008.29
2018-07-14T05:37:26.794Z,1008.3
2018-07-14T05:38:26.816Z,1008.33
2018-07-14T05:39:26.839Z,1008.35
2018-07-14T05:40:26.862Z,1008.36
2018-07-14T05:41:26.883Z,1008.33
2018-07-14T05:42:26.908Z,1008.3
2018-07-14T05:43:26.927Z,1008.33
2018-07-14T05:44:26.950Z,1008.3
2018-07-14T05:45:26.970Z,1008.35
2018-07-14T05:46:26.993Z,1008.37
2018-07-14T05:47:27.015Z,1008.37
2018-07-14T05:48:27.039Z,1008.38
2018-07-14T05:49:27.062Z,1008.39
2018-07-14T05:50:27.080Z,1008.45
2018-07-14T05:51:27.101Z,1008.41
2018-07-14T05:52:27.128Z,1008.42
2018-07-14T05:53:27.146Z,1008.42
2018-07-14T05:54:27.169Z,1008.42
2018-07-14T05:55:27.191Z,1008.42
2018-07-14T05:56:27.213Z,1008.42
2018-07-14T05:57:27.236Z,1008.46
2018-07-14T05:58:27.258Z,1008.44
2018-07-14T05:59:27.278Z,1008.44
2018-07-14T06:00:27.300Z,1008.43
2018-07-14T06:01:27.323Z,1008.45
2018-07-14T06:02:27.345Z,1008.48
2018-07-14T06:03:27.366Z,1008.49
2018-07-14T06:04:27.389Z,1008.48
2018-07-14T06:05:27.414Z,1008.5
2018-07-14T06:06:27.433Z,1008.46
2018-07-14T06:07:27.454Z,1008.45
2018-07-14T06:08:27.477Z,1008.43
2018-07-14T06:09:27.499Z,1008.44
2018-07-14T06:10:27.522Z,1008.41
2018-07-14T06:11:27.544Z,1008.41
2018-07-14T06:12:27.572Z,1008.4
2018-07-14T06:13:27.594Z,1008.37
2018-07-14T06:14:27.610Z,1008.35
2018-07-14T06:15:27.721Z,1008.37
2018-07-14T06:16:27.670Z,1008.4
2018-07-14T06:17:27.683Z,1008.41
2018-07-14T06:18:27.699Z,1008.43
2018-07-14T06:19:27.735Z,1008.4
2018-07-14T06:20:27.742Z,1008.43
2018-07-14T06:21:27.769Z,1008.39
2018-07-14T06:22:27.788Z,1008.43
2018-07-14T06:23:27.810Z,1008.47
2018-07-14T06:24:27.833Z,1008.5
2018-07-14T06:25:27.854Z,1008.48
2018-07-14T06:26:27.880Z,1008.49
2018-07-14T06:27:27.899Z,1008.46
2018-07-14T06:28:27.919Z,1008.49
2018-07-14T06:29:27.943Z,1008.47
2018-07-14T06:30:27.965Z,1008.46
2018-07-14T06:31:27.985Z,1008.49
2018-07-14T06:32:28.013Z,1008.48
2018-07-14T06:33:28.031Z,1008.47
2018-07-14T06:34:28.054Z,1008.52
2018-07-14T06:35:28.075Z,1008.51
2018-07-14T06:36:28.099Z,1008.52
2018-07-14T06:37:28.121Z,1008.48
2018-07-14T06:38:28.148Z,1008.58
2018-07-14T06:39:28.163Z,1008.56
2018-07-14T06:40:28.191Z,1008.55
2018-07-14T06:41:28.209Z,1008.58
2018-07-14T06:42:28.232Z,1008.58
2018-07-14T06:43:28.252Z,1008.59
2018-07-14T06:44:28.276Z,1008.62
2018-07-14T06:45:28.298Z,1008.63
2018-07-14T06:46:28.321Z,1008.62
2018-07-14T06:47:28.344Z,1008.6
2018-07-14T06:48:28.364Z,1008.63
2018-07-14T06:49:28.388Z,1008.64
2018-07-14T06:50:28.410Z,1008.63
2018-07-14T06:51:28.430Z,1008.63
2018-07-14T06:52:28.453Z,1008.66
2018-07-14T06:53:28.478Z,1008.69
2018-07-14T06:54:28.499Z,1008.65
2018-07-14T06:55:28.523Z,1008.66
2018-07-14T06:56:28.543Z,1008.6
2018-07-14T06:57:28.564Z,1008.59
2018-07-14T06:58:28.586Z,1008.56
2018-07-14T06:59:28.611Z,1008.57
2018-07-14T07:00:28.633Z,1008.54
2018-07-14T07:01:28.653Z,1008.58
2018-07-14T07:02:28.676Z,1008.62
2018-07-14T07:03:28.775Z,1008.65
2018-07-14T07:04:28.720Z,1008.65
2018-07-14T07:05:28.743Z,1008.63
2018-07-14T07:06:28.767Z,1008.6
2018-07-14T07:07:28.789Z,1008.63
2018-07-14T07:08:28.810Z,1008.62
2018-07-14T07:09:28.832Z,1008.64
2018-07-14T07:10:28.856Z,1008.62
2018-07-14T07:11:28.879Z,1008.64
2018-07-14T07:12:28.899Z,1008.66
2018-07-14T07:13:28.924Z,1008.65
2018-07-14T07:14:28.945Z,1008.64
2018-07-14T07:15:28.966Z,1008.58
2018-07-14T07:16:28.989Z,1008.6
2018-07-14T07:17:29.012Z,1008.56
2018-07-14T07:18:29.034Z,1008.58
2018-07-14T07:19:29.057Z,1008.58
2018-07-14T07:20:29.080Z,1008.57
2018-07-14T07:21:29.281Z,1008.63
2018-07-14T07:22:29.127Z,1008.65
2018-07-14T07:23:29.148Z,1008.61
2018-07-14T07:24:29.168Z,1008.63
2018-07-14T07:25:29.192Z,1008.66
2018-07-14T07:26:29.212Z,1008.69
2018-07-14T07:27:29.235Z,1008.68
2018-07-14T07:28:29.257Z,1008.67
2018-07-14T07:29:29.280Z,1008.69
2018-07-14T07:30:29.332Z,1008.67
2018-07-14T07:31:29.325Z,1008.66
2018-07-14T07:32:29.348Z,1008.66
2018-07-14T07:33:29.370Z,1008.59
2018-07-14T07:34:29.410Z,1008.65
2018-07-14T07:35:29.418Z,1008.63
2018-07-14T07:36:29.440Z,1008.61
2018-07-14T07:37:29.462Z,1008.6
2018-07-14T07:38:29.484Z,1008.6
2018-07-14T07:39:29.509Z,1008.57
2018-07-14T07:40:29.530Z,1008.54
2018-07-14T07:41:29.551Z,1008.6
2018-07-14T07:42:29.585Z,1008.58
2018-07-14T07:43:29.598Z,1008.56
2018-07-14T07:44:29.622Z,1008.56
2018-07-14T07:45:29.643Z,1008.54
2018-07-14T07:46:29.666Z,1008.59
2018-07-14T07:47:29.689Z,1008.62
2018-07-14T07:48:29.709Z,1008.64
2018-07-14T07:49:29.735Z,1008.6
2018-07-14T07:50:29.757Z,1008.62
2018-07-14T07:51:29.779Z,1008.66
2018-07-14T07:52:29.801Z,1008.66
2018-07-14T07:53:29.834Z,1008.65
2018-07-14T07:54:29.850Z,1008.62
2018-07-14T07:55:29.869Z,1008.64
2018-07-14T07:56:29.894Z,1008.64
2018-07-14T07:57:29.915Z,1008.66
2018-07-14T07:58:29.939Z,1008.65
2018-07-14T07:59:29.961Z,1008.7
2018-07-14T08:00:29.986Z,1008.64
2018-07-14T08:01:30.008Z,1008.61
2018-07-14T08:02:30.030Z,1008.61
2018-07-14T08:03:30.058Z,1008.63
2018-07-14T08:04:30.075Z,1008.64
2018-07-14T08:05:30.099Z,1008.61
2018-07-14T08:06:30.121Z,1008.65
2018-07-14T08:07:30.144Z,1008.64
2018-07-14T08:08:30.168Z,1008.68
2018-07-14T08:09:30.190Z,1008.62
2018-07-14T08:10:30.212Z,1008.67
2018-07-14T08:11:30.239Z,1008.65
2018-07-14T08:12:30.262Z,1008.67
2018-07-14T08:13:30.286Z,1008.65
2018-07-14T08:14:30.308Z,1008.65
2018-07-14T08:15:30.335Z,1008.66
2018-07-14T08:16:30.351Z,1008.66
2018-07-14T08:17:30.377Z,1008.67
2018-07-14T08:18:30.397Z,1008.66
2018-07-14T08:19:30.422Z,1008.66
2018-07-14T08:20:30.446Z,1008.64
2018-07-14T08:21:30.469Z,1008.67
2018-07-14T08:22:30.495Z,1008.62
2018-07-14T08:23:30.519Z,1008.65
2018-07-14T08:24:30.538Z,1008.66
2018-07-14T08:25:30.563Z,1008.7
2018-07-14T08:26:30.585Z,1008.68
2018-07-14T08:27:30.616Z,1008.72
2018-07-14T08:28:30.630Z,1008.75
2018-07-14T08:29:30.658Z,1008.68
2018-07-14T08:30:30.680Z,1008.7
2018-07-14T08:31:30.702Z,1008.73
2018-07-14T08:32:30.777Z,1008.73
2018-07-14T08:33:30.748Z,1008.73
2018-07-14T08:34:30.773Z,1008.67
2018-07-14T08:35:30.797Z,1008.7
2018-07-14T08:36:30.819Z,1008.73
2018-07-14T08:37:30.845Z,1008.73
2018-07-14T08:38:30.868Z,1008.67
2018-07-14T08:39:30.890Z,1008.65
2018-07-14T08:40:30.922Z,1008.64
2018-07-14T08:41:30.938Z,1008.61
2018-07-14T08:42:30.963Z,1008.63
2018-07-14T08:43:30.983Z,1008.59
2018-07-14T08:44:31.011Z,1008.6
2018-07-14T08:45:31.033Z,1008.6
2018-07-14T08:46:31.057Z,1008.6
2018-07-14T08:47:31.079Z,1008.61
2018-07-14T08:48:31.107Z,1008.6
2018-07-14T08:49:31.127Z,1008.62
2018-07-14T08:50:31.179Z,1008.6
2018-07-14T08:51:31.263Z,1008.6
2018-07-14T08:52:31.206Z,1008.59
2018-07-14T08:53:31.224Z,1008.62
2018-07-14T08:54:31.248Z,1008.64
2018-07-14T08:55:31.272Z,1008.62
2018-07-14T08:56:31.296Z,1008.65
2018-07-14T08:57:31.321Z,1008.67
2018-07-14T08:58:31.343Z,1008.65
2018-07-14T08:59:31.368Z,1008.64
2018-07-14T09:00:31.393Z,1008.65
2018-07-14T09:01:31.416Z,1008.62
2018-07-14T09:02:31.455Z,1008.63
2018-07-14T09:03:31.482Z,1008.61
2018-07-14T09:04:31.492Z,1008.58
2018-07-14T09:05:31.514Z,1008.58
2018-07-14T09:06:31.539Z,1008.55
2018-07-14T09:07:31.565Z,1008.59
2018-07-14T09:08:31.592Z,1008.53
2018-07-14T09:09:31.612Z,1008.54
2018-07-14T09:10:31.637Z,1008.58
2018-07-14T09:11:31.665Z,1008.52
2018-07-14T09:12:31.685Z,1008.5
2018-07-14T09:13:31.710Z,1008.51
2018-07-14T09:14:31.736Z,1008.47
2018-07-14T09:15:31.762Z,1008.53
2018-07-14T09:16:31.806Z,1008.53
2018-07-14T09:17:31.809Z,1008.47
2018-07-14T09:18:31.835Z,1008.49
2018-07-14T09:19:31.859Z,1008.48
2018-07-14T09:20:31.884Z,1008.52
2018-07-14T09:21:31.909Z,1008.53
2018-07-14T09:22:31.938Z,1008.56
2018-07-14T09:23:31.960Z,1008.5
2018-07-14T09:24:31.985Z,1008.52
2018-07-14T09:25:32.010Z,1008.54
2018-07-14T09:26:32.037Z,1008.45
2018-07-14T09:27:32.062Z,1008.45
2018-07-14T09:28:32.087Z,1008.46
2018-07-14T09:29:32.112Z,1008.47
2018-07-14T09:30:32.137Z,1008.5
2018-07-14T09:31:32.161Z,1008.47
2018-07-14T09:32:32.256Z,1008.43
2018-07-14T09:33:32.212Z,1008.44
2018-07-14T09:34:32.237Z,1008.45
2018-07-14T09:35:32.262Z,1008.46
2018-07-14T09:36:32.288Z,1008.51
2018-07-14T09:37:32.315Z,1008.48
2018-07-14T09:38:32.339Z,1008.45
2018-07-14T09:39:32.364Z,1008.47
2018-07-14T09:40:32.391Z,1008.43
2018-07-14T09:41:32.415Z,1008.41
2018-07-14T09:42:32.442Z,1008.41
2018-07-14T09:43:32.468Z,1008.46
2018-07-14T09:44:32.555Z,1008.41
2018-07-14T09:45:32.519Z,1008.38
2018-07-14T09:46:32.546Z,1008.43
2018-07-14T09:47:32.571Z,1008.39
2018-07-14T09:48:32.597Z,1008.41
2018-07-14T09:49:32.621Z,1008.45
2018-07-14T09:50:32.648Z,1008.39
2018-07-14T09:51:32.674Z,1008.42
2018-07-14T09:52:32.700Z,1008.39
2018-07-14T09:53:32.725Z,1008.41
2018-07-14T09:54:32.752Z,1008.4
2018-07-14T09:55:32.779Z,1008.39
2018-07-14T09:56:32.804Z,1008.39
2018-07-14T09:57:32.829Z,1008.41
2018-07-14T09:58:32.856Z,1008.4
2018-07-14T09:59:32.883Z,1008.37
2018-07-14T10:00:32.910Z,1008.43
2018-07-14T10:01:32.935Z,1008.38
2018-07-14T10:02:32.962Z,1008.37
2018-07-14T10:03:33.099Z,1008.37
2018-07-14T10:04:33.015Z,1008.39
2018-07-14T10:05:33.042Z,1008.37
2018-07-14T10:06:33.069Z,1008.3
2018-07-14T10:07:33.094Z,1008.3
2018-07-14T10:08:33.121Z,1008.29
2018-07-14T10:09:33.149Z,1008.35
2018-07-14T10:10:33.176Z,1008.34
2018-07-14T10:11:33.203Z,1008.33
2018-07-14T10:12:33.229Z,1008.34
2018-07-14T10:13:33.258Z,1008.35
2018-07-14T10:14:33.285Z,1008.36
2018-07-14T10:15:33.310Z,1008.36
2018-07-14T10:16:33.336Z,1008.35
2018-07-14T10:17:33.378Z,1008.3
2018-07-14T10:18:33.391Z,1008.3
2018-07-14T10:19:33.417Z,1008.29
2018-07-14T10:20:33.446Z,1008.24
2018-07-14T10:21:33.472Z,1008.28
2018-07-14T10:22:33.503Z,1008.26
2018-07-14T10:23:33.526Z,1008.25
2018-07-14T10:24:33.554Z,1008.23
2018-07-14T10:25:33.598Z,1008.2
2018-07-14T10:26:33.611Z,1008.08
2018-07-14T10:27:33.642Z,1008.16
2018-07-14T10:28:33.665Z,1008.16
2018-07-14T10:29:33.693Z,1008.17
2018-07-14T10:30:33.719Z,1008.17
2018-07-14T10:31:33.748Z,1008.18
2018-07-14T10:32:33.777Z,1008.15
2018-07-14T10:33:33.815Z,1008.16
2018-07-14T10:34:33.831Z,1008.14
2018-07-14T10:35:33.860Z,1008.17
2018-07-14T10:36:33.887Z,1008.16
2018-07-14T10:37:33.915Z,1008.14
2018-07-14T10:38:33.973Z,1008.09
2018-07-14T10:39:33.971Z,1008.06
2018-07-14T10:40:33.999Z,1008.1
2018-07-14T10:41:34.029Z,1008.1
2018-07-14T10:42:34.102Z,1008.08
2018-07-14T10:43:34.084Z,1008.01
2018-07-14T10:44:34.112Z,1008.07
2018-07-14T10:45:34.139Z,1008.05
2018-07-14T10:46:34.169Z,1008.04
2018-07-14T10:47:34.197Z,1008.06
2018-07-14T10:48:34.225Z,1008.02
2018-07-14T10:49:34.255Z,1008.02
2018-07-14T10:50:34.283Z,1008.01
2018-07-14T10:51:34.326Z,1008.06
2018-07-14T10:52:34.340Z,1008.03
2018-07-14T10:53:34.370Z,1008.05
2018-07-14T10:54:34.399Z,1008.02
2018-07-14T10:55:34.426Z,1007.97
2018-07-14T10:56:34.566Z,1007.96
2018-07-14T10:57:34.485Z,1007.97
2018-07-14T10:58:34.512Z,1007.98
2018-07-14T10:59:34.542Z,1007.98
2018-07-14T11:00:34.571Z,1007.93
2018-07-14T11:01:34.601Z,1007.97
2018-07-14T11:02:34.629Z,1007.98
2018-07-14T11:03:34.659Z,1007.94
2018-07-14T11:04:34.787Z,1007.97
2018-07-14T11:05:34.717Z,1007.93
2018-07-14T11:06:34.750Z,1007.92
2018-07-14T11:07:34.783Z,1007.93
2018-07-14T11:08:34.806Z,1007.94
2018-07-14T11:09:34.837Z,1007.96
2018-07-14T11:10:34.865Z,1007.91
2018-07-14T11:11:34.894Z,1007.91
2018-07-14T11:12:34.924Z,1007.89
2018-07-14T11:13:34.953Z,1007.88
2018-07-14T11:14:34.983Z,1007.91
2018-07-14T11:15:35.013Z,1007.89
2018-07-14T11:16:35.043Z,1007.89
2018-07-14T11:17:35.072Z,1007.87
2018-07-14T11:18:35.101Z,1007.82
2018-07-14T11:19:35.132Z,1007.81
2018-07-14T11:20:35.163Z,1007.86
2018-07-14T11:21:35.191Z,1007.82
2018-07-14T11:22:35.221Z,1007.8
2018-07-14T11:23:35.302Z,1007.79
2018-07-14T11:24:35.280Z,1007.8
2018-07-14T11:25:35.312Z,1007.79
2018-07-14T11:26:35.342Z,1007.72
2018-07-14T11:27:35.376Z,1007.78
2018-07-14T11:28:35.404Z,1007.75
2018-07-14T11:29:35.436Z,1007.73
2018-07-14T11:30:35.465Z,1007.73
2018-07-14T11:31:35.493Z,1007.72
2018-07-14T11:32:35.524Z,1007.74
2018-07-14T11:33:35.560Z,1007.73
2018-07-14T11:34:35.620Z,1007.69
2018-07-14T11:35:35.616Z,1007.65
2018-07-14T11:36:35.647Z,1007.65
2018-07-14T11:37:35.708Z,1007.65
2018-07-14T11:38:35.710Z,1007.59
2018-07-14T11:39:35.743Z,1007.57
2018-07-14T11:40:35.772Z,1007.57
2018-07-14T11:41:35.803Z,1007.56
2018-07-14T11:42:35.832Z,1007.58
2018-07-14T11:43:35.864Z,1007.62
2018-07-14T11:44:35.893Z,1007.63
2018-07-14T11:45:35.926Z,1007.64
2018-07-14T11:46:35.955Z,1007.67
2018-07-14T11:47:36.057Z,1007.62
2018-07-14T11:48:36.019Z,1007.6
2018-07-14T11:49:36.050Z,1007.61
2018-07-14T11:50:36.084Z,1007.54
2018-07-14T11:51:36.113Z,1007.57
2018-07-14T11:52:36.144Z,1007.59
2018-07-14T11:53:36.175Z,1007.59
2018-07-14T11:54:36.209Z,1007.57
2018-07-14T11:55:36.277Z,1007.51
2018-07-14T11:56:36.271Z,1007.54
2018-07-14T11:57:36.302Z,1007.55
2018-07-14T11:58:36.334Z,1007.49
2018-07-14T11:59:36.365Z,1007.47
2018-07-14T12:00:36.397Z,1007.42
2018-07-14T12:01:36.430Z,1007.47
2018-07-14T12:02:36.461Z,1007.45
2018-07-14T12:03:36.494Z,1007.51
2018-07-14T12:04:36.523Z,1007.51
2018-07-14T12:05:36.600Z,1007.43
2018-07-14T12:06:36.793Z,1007.36
2018-07-14T12:07:36.620Z,1007.38
2018-07-14T12:08:36.656Z,1007.41